createdAt,value
2023-03-04T00:00:30.893Z,55.34
2023-03-04T00:02:58.166Z,55.38
2023-03-04T00:05:25.417Z,55.45
2023-03-04T00:07:52.322Z,55.51
2023-03-04T00:10:19.395Z,55.36
2023-03-04T00:12:46.363Z,55.38
2023-03-04T00:15:13.295Z,55.38
2023-03-04T00:17:40.241Z,55.52
2023-03-04T00:20:08.865Z,55.10
2023-03-04T00:22:36.057Z,55.21
2023-03-04T00:25:03.031Z,55.39
2023-03-04T00:27:30.153Z,55.45
2023-03-04T00:29:57.747Z,55.22
2023-03-04T00:32:24.992Z,55.45
2023-03-04T00:34:51.986Z,55.54
2023-03-04T00:37:18.954Z,55.47
2023-03-04T00:39:45.970Z,55.55
2023-03-04T00:42:12.957Z,55.49
2023-03-04T00:44:39.932Z,55.42
2023-03-04T00:47:06.925Z,55.44
2023-03-04T00:49:33.839Z,55.53
2023-03-04T00:52:00.785Z,55.37
2023-03-04T00:54:27.840Z,55.54
2023-03-04T00:56:54.857Z,55.77
2023-03-04T00:59:22.053Z,55.58
2023-03-04T01:01:49.057Z,55.74
2023-03-04T01:04:17.963Z,55.43
2023-03-04T01:06:44.998Z,55.65
2023-03-04T01:09:14.046Z,55.31
2023-03-04T01:11:41.257Z,55.54
2023-03-04T01:14:08.246Z,55.71
2023-03-04T01:16:35.583Z,55.77
2023-03-04T01:19:02.729Z,55.89
2023-03-04T01:21:31.096Z,55.63
2023-03-04T01:23:58.071Z,55.65
2023-03-04T01:26:25.010Z,55.60
2023-03-04T01:28:52.381Z,55.70
2023-03-04T01:31:19.667Z,55.70
2023-03-04T01:33:46.731Z,55.50
2023-03-04T01:36:13.991Z,55.79
2023-03-04T01:38:41.008Z,55.63
2023-03-04T01:41:08.512Z,55.79
2023-03-04T01:43:37.988Z,55.66
2023-03-04T01:46:06.231Z,55.78
2023-03-04T01:48:38.168Z,55.65
2023-03-04T01:51:07.166Z,55.72
2023-03-04T01:53:34.400Z,55.91
2023-03-04T01:56:12.221Z,55.63
2023-03-04T01:58:39.173Z,55.55
2023-03-04T02:01:06.084Z,55.75
2023-03-04T02:03:33.231Z,55.83
2023-03-04T02:06:01.361Z,55.58
2023-03-04T02:08:28.538Z,55.82
2023-03-04T02:10:57.086Z,55.80
2023-03-04T02:13:24.053Z,56.05
2023-03-04T02:15:52.046Z,55.72
2023-03-04T02:18:24.918Z,55.63
2023-03-04T02:21:25.052Z,55.39
2023-03-04T02:24:26.804Z,54.95
2023-03-04T02:26:53.953Z,55.66
2023-03-04T02:29:21.232Z,55.64
2023-03-04T02:31:52.421Z,55.71
2023-03-04T02:34:23.185Z,55.29
2023-03-04T02:36:53.770Z,55.58
2023-03-04T02:39:20.685Z,55.79
2023-03-04T02:41:50.728Z,55.81
2023-03-04T02:44:31.159Z,55.24
2023-03-04T02:46:59.876Z,55.88
2023-03-04T02:49:31.191Z,55.71
2023-03-04T02:52:22.022Z,55.30
2023-03-04T02:54:49.013Z,55.78
2023-03-04T02:57:17.257Z,55.72
2023-03-04T02:59:48.176Z,56.02
2023-03-04T03:02:19.284Z,55.34
2023-03-04T03:04:46.283Z,55.80
2023-03-04T03:07:15.900Z,55.94
2023-03-04T03:09:43.519Z,56.00
2023-03-04T03:12:10.915Z,55.99
2023-03-04T03:14:38.088Z,56.12
2023-03-04T03:17:05.977Z,56.11
2023-03-04T03:19:33.019Z,55.97
2023-03-04T03:22:02.893Z,56.19
2023-03-04T03:24:29.940Z,55.97
2023-03-04T03:26:56.912Z,56.02
2023-03-04T03:29:24.536Z,56.28
2023-03-04T03:31:51.555Z,56.21
2023-03-04T03:34:20.526Z,56.22
2023-03-04T03:36:48.602Z,55.93
2023-03-04T03:39:15.727Z,56.19
2023-03-04T03:41:42.719Z,56.29
2023-03-04T03:44:09.664Z,56.38
2023-03-04T03:46:36.667Z,56.22
2023-03-04T03:49:03.646Z,56.19
2023-03-04T03:51:30.573Z,56.36
2023-03-04T03:53:57.479Z,56.36
2023-03-04T03:56:24.407Z,56.22
2023-03-04T03:58:51.370Z,56.15
2023-03-04T04:01:18.342Z,56.49
2023-03-04T04:03:45.276Z,56.27
2023-03-04T04:06:12.314Z,56.45
2023-03-04T04:08:39.339Z,56.60
2023-03-04T04:11:06.255Z,56.50
2023-03-04T04:13:33.181Z,56.40
2023-03-04T04:16:00.166Z,56.48
2023-03-04T04:18:27.760Z,56.30
2023-03-04T04:20:55.135Z,56.83
2023-03-04T04:23:22.172Z,56.40
2023-03-04T04:25:49.139Z,56.42
2023-03-04T04:28:16.168Z,56.39
2023-03-04T04:30:43.295Z,56.42
2023-03-04T04:33:10.610Z,56.53
2023-03-04T04:35:38.822Z,56.72
2023-03-04T04:38:07.860Z,56.51
2023-03-04T04:40:34.952Z,57.04
2023-03-04T04:43:02.273Z,56.64
2023-03-04T04:45:29.243Z,56.43
2023-03-04T04:47:57.412Z,56.56
2023-03-04T04:50:25.101Z,56.60
2023-03-04T04:52:52.478Z,57.11
2023-03-04T04:55:19.569Z,56.79
2023-03-04T04:57:46.530Z,56.78
2023-03-04T05:00:14.356Z,56.79
2023-03-04T05:02:41.303Z,56.92
2023-03-04T05:05:08.570Z,56.77
2023-03-04T05:07:35.581Z,56.73
2023-03-04T05:10:03.017Z,56.92
2023-03-04T05:12:30.168Z,57.99
2023-03-04T05:14:57.145Z,57.41
2023-03-04T05:17:24.101Z,57.09
2023-03-04T05:19:51.047Z,57.21
2023-03-04T05:22:18.028Z,57.24
2023-03-04T05:24:44.980Z,56.95
2023-03-04T05:27:12.055Z,56.83
2023-03-04T05:29:39.068Z,57.05
2023-03-04T05:32:06.043Z,57.00
2023-03-04T05:34:33.087Z,56.97
2023-03-04T05:37:00.035Z,56.95
2023-03-04T05:39:26.969Z,57.26
2023-03-04T05:41:53.949Z,57.01
2023-03-04T05:44:20.916Z,57.05
2023-03-04T05:46:47.890Z,57.18
2023-03-04T05:49:14.847Z,57.04
2023-03-04T05:51:41.773Z,57.23
2023-03-04T05:54:08.785Z,58.00
2023-03-04T05:56:35.820Z,57.63
2023-03-04T05:59:02.866Z,58.09
2023-03-04T06:01:31.277Z,57.55
2023-03-04T06:03:58.342Z,57.44
2023-03-04T06:06:25.345Z,57.49
2023-03-04T06:08:52.344Z,57.21
2023-03-04T06:11:19.310Z,57.48
2023-03-04T06:13:46.279Z,57.56
2023-03-04T06:16:13.242Z,57.65
2023-03-04T06:18:40.244Z,57.63
2023-03-04T06:21:07.208Z,58.05
2023-03-04T06:23:34.167Z,58.97
2023-03-04T06:26:01.986Z,59.03
2023-03-04T06:28:29.408Z,57.96
2023-03-04T06:30:57.769Z,58.37
2023-03-04T06:33:25.546Z,60.44
2023-03-04T06:35:57.687Z,58.91
2023-03-04T06:38:26.322Z,58.47
2023-03-04T06:40:56.082Z,58.33
2023-03-04T06:43:24.339Z,58.77
2023-03-04T06:45:51.365Z,58.30
2023-03-04T06:48:18.297Z,60.13
2023-03-04T06:50:45.214Z,58.50
2023-03-04T06:53:12.175Z,59.13
2023-03-04T06:55:39.084Z,59.63
2023-03-04T06:58:06.049Z,58.46
2023-03-04T07:00:33.083Z,58.80
2023-03-04T07:03:00.344Z,58.55
2023-03-04T07:05:27.499Z,58.41
2023-03-04T07:07:54.693Z,58.99
2023-03-04T07:10:21.617Z,58.58
2023-03-04T07:12:48.571Z,58.42
2023-03-04T07:15:15.524Z,58.86
2023-03-04T07:17:42.719Z,58.84
2023-03-04T07:20:10.696Z,58.67
2023-03-04T07:22:37.823Z,58.50
2023-03-04T07:25:06.580Z,58.98
2023-03-04T07:27:33.538Z,58.92
2023-03-04T07:30:00.515Z,59.09
2023-03-04T07:32:27.495Z,59.13
2023-03-04T07:34:54.447Z,59.11
2023-03-04T07:37:21.393Z,59.19
2023-03-04T07:39:48.421Z,59.02
2023-03-04T07:42:15.411Z,58.86
2023-03-04T07:44:51.023Z,59.44
2023-03-04T07:47:17.961Z,59.42
2023-03-04T07:49:44.901Z,59.18
2023-03-04T07:52:14.202Z,58.98
2023-03-04T07:54:41.172Z,59.48
2023-03-04T07:57:08.103Z,59.54
2023-03-04T07:59:35.026Z,59.41
2023-03-04T08:02:01.957Z,59.50
2023-03-04T08:04:28.977Z,59.48
2023-03-04T08:06:55.925Z,59.37
2023-03-04T08:09:22.937Z,60.03
2023-03-04T08:11:49.870Z,59.66
2023-03-04T08:14:16.924Z,59.63
2023-03-04T08:16:43.887Z,60.06
2023-03-04T08:19:12.497Z,59.66
2023-03-04T08:21:39.520Z,59.94
2023-03-04T08:24:08.682Z,60.03
2023-03-04T08:26:43.750Z,59.90
2023-03-04T08:29:16.006Z,59.65
2023-03-04T08:31:46.294Z,59.65
2023-03-04T08:34:15.378Z,59.66
2023-03-04T08:36:42.747Z,60.15
2023-03-04T08:39:14.216Z,59.77
2023-03-04T08:41:41.750Z,59.73
2023-03-04T08:44:10.233Z,59.69
2023-03-04T08:46:39.551Z,60.08
2023-03-04T08:49:07.340Z,60.10
2023-03-04T08:51:35.736Z,59.89
2023-03-04T08:54:05.845Z,59.82
2023-03-04T08:56:32.839Z,59.95
2023-03-04T08:59:00.140Z,60.27
2023-03-04T09:01:27.344Z,59.79
2023-03-04T09:03:54.858Z,60.07
2023-03-04T09:06:21.814Z,60.25
2023-03-04T09:08:48.739Z,60.39
2023-03-04T09:11:16.078Z,60.48
2023-03-04T09:13:43.056Z,60.32
2023-03-04T09:16:12.736Z,60.29
2023-03-04T09:18:41.594Z,60.42
2023-03-04T09:21:09.399Z,59.99
2023-03-04T09:23:37.897Z,60.50
2023-03-04T09:26:22.368Z,59.86
2023-03-04T09:28:55.126Z,60.40
2023-03-04T09:31:22.274Z,60.35
2023-03-04T09:33:52.103Z,60.37
2023-03-04T09:36:19.688Z,60.66
2023-03-04T09:38:46.850Z,60.45
2023-03-04T09:41:40.628Z,60.30
2023-03-04T09:44:29.419Z,60.11
2023-03-04T09:47:01.243Z,60.63
2023-03-04T09:49:28.790Z,60.78
2023-03-04T09:52:20.868Z,60.24
2023-03-04T09:55:21.016Z,60.38
2023-03-04T09:58:00.279Z,60.55
2023-03-04T10:00:44.543Z,60.71
2023-03-04T10:03:37.797Z,60.50
2023-03-04T10:06:10.301Z,60.75
2023-03-04T10:08:57.339Z,60.61
2023-03-04T10:11:50.313Z,60.57
2023-03-04T10:14:23.157Z,60.60
2023-03-04T10:16:52.960Z,60.78
2023-03-04T10:19:32.134Z,60.56
2023-03-04T10:21:59.500Z,61.00
2023-03-04T10:24:30.677Z,61.25
2023-03-04T10:27:05.795Z,60.95
2023-03-04T10:29:33.974Z,61.51
2023-03-04T10:32:00.995Z,61.09
2023-03-04T10:34:28.113Z,61.47
2023-03-04T10:37:08.726Z,60.83
2023-03-04T10:39:43.664Z,61.05
2023-03-04T10:42:27.252Z,61.20
2023-03-04T10:44:59.471Z,61.05
2023-03-04T10:47:32.677Z,61.18
2023-03-04T10:50:02.424Z,61.28
2023-03-04T10:52:41.231Z,61.16
2023-03-04T10:55:22.361Z,61.04
2023-03-04T10:57:56.876Z,61.33
2023-03-04T11:00:35.619Z,61.65
2023-03-04T11:03:29.821Z,61.45
2023-03-04T11:06:19.854Z,61.15
2023-03-04T11:08:58.888Z,61.44
2023-03-04T11:11:42.900Z,61.34
2023-03-04T11:14:24.852Z,61.41
2023-03-04T11:16:59.326Z,61.60
2023-03-04T11:19:39.709Z,61.50
2023-03-04T11:22:06.986Z,61.71
2023-03-04T11:24:36.857Z,61.85
2023-03-04T11:27:22.460Z,61.52
2023-03-04T11:30:00.423Z,61.60
2023-03-04T11:32:40.827Z,61.40
2023-03-04T11:35:35.246Z,61.47
2023-03-04T11:38:18.488Z,61.35
2023-03-04T11:41:12.965Z,61.65
2023-03-04T11:43:44.924Z,61.68
2023-03-04T11:46:42.359Z,61.89
2023-03-04T11:49:30.339Z,61.53
2023-03-04T11:52:03.028Z,61.92
2023-03-04T11:54:58.662Z,61.90
2023-03-04T11:57:53.189Z,61.63
2023-03-04T12:00:41.781Z,61.92
2023-03-04T12:03:36.441Z,61.98
2023-03-04T12:06:18.497Z,61.88
2023-03-04T12:09:09.785Z,61.69
2023-03-04T12:11:55.638Z,61.60
2023-03-04T12:14:46.338Z,61.93
2023-03-04T12:17:35.653Z,61.82
2023-03-04T12:20:37.329Z,61.64
2023-03-04T12:23:49.740Z,61.63
2023-03-04T12:26:22.977Z,61.90
2023-03-04T12:29:08.394Z,61.97
2023-03-04T12:31:41.002Z,62.11
2023-03-04T12:34:31.349Z,61.72
2023-03-04T12:37:30.658Z,61.69
2023-03-04T12:40:37.375Z,61.76
2023-03-04T12:43:36.297Z,61.85
2023-03-04T12:46:32.053Z,61.81
2023-03-04T12:49:23.283Z,61.81
2023-03-04T12:52:02.103Z,61.70
2023-03-04T12:54:43.179Z,61.90
2023-03-04T12:57:22.952Z,61.93
2023-03-04T13:00:13.989Z,61.89
2023-03-04T13:03:11.718Z,61.78
2023-03-04T13:06:04.362Z,62.18
2023-03-04T13:08:58.321Z,61.77
2023-03-04T13:11:28.327Z,61.90
2023-03-04T13:14:14.774Z,61.54
2023-03-04T13:16:54.477Z,61.91
2023-03-04T13:19:52.701Z,62.06
2023-03-04T13:22:40.773Z,61.76
2023-03-04T13:25:50.366Z,61.70
2023-03-04T13:28:32.970Z,61.81
2023-03-04T13:31:57.343Z,61.80
2023-03-04T13:34:45.808Z,61.80
2023-03-04T13:37:58.162Z,61.78
2023-03-04T13:40:35.457Z,61.56
2023-03-04T13:43:25.906Z,61.43
2023-03-04T13:45:53.034Z,61.66
2023-03-04T13:48:37.159Z,61.56
2023-03-04T13:51:04.428Z,61.48
2023-03-04T13:53:40.733Z,61.63
2023-03-04T13:56:37.447Z,61.52
2023-03-04T13:59:07.620Z,61.61
2023-03-04T14:01:38.891Z,61.43
2023-03-04T14:04:35.280Z,61.27
2023-03-04T14:07:19.404Z,61.44
2023-03-04T14:10:00.241Z,61.38
2023-03-04T14:12:30.307Z,61.34
2023-03-04T14:15:02.754Z,61.37
2023-03-04T14:17:37.321Z,61.25
2023-03-04T14:20:36.054Z,61.19
2023-03-04T14:23:23.021Z,61.34
2023-03-04T14:25:50.170Z,61.17
2023-03-04T14:28:20.780Z,61.18
2023-03-04T14:30:57.158Z,61.22
2023-03-04T14:33:30.486Z,61.26
2023-03-04T14:36:01.419Z,61.24
2023-03-04T14:38:38.100Z,61.01
2023-03-04T14:41:34.395Z,61.11
2023-03-04T14:44:26.307Z,61.21
2023-03-04T14:47:08.301Z,61.32
2023-03-04T14:49:39.766Z,61.00
2023-03-04T14:52:07.382Z,61.28
2023-03-04T14:54:40.395Z,61.31
2023-03-04T14:57:29.708Z,60.98
2023-03-04T14:59:56.789Z,61.02
2023-03-04T15:02:33.141Z,61.05
2023-03-04T15:05:25.835Z,60.97
2023-03-04T15:08:06.964Z,60.92
2023-03-04T15:10:38.895Z,60.82
2023-03-04T15:13:09.491Z,61.21
2023-03-04T15:15:46.147Z,60.88
2023-03-04T15:18:26.589Z,60.81
2023-03-04T15:21:27.216Z,60.78
2023-03-04T15:23:54.210Z,61.23
2023-03-04T15:26:21.225Z,60.89
2023-03-04T15:28:48.323Z,61.00
2023-03-04T15:31:20.201Z,61.17
2023-03-04T15:33:48.121Z,60.95
2023-03-04T15:36:20.892Z,61.14
2023-03-04T15:38:53.440Z,61.10
2023-03-04T15:41:26.431Z,60.82
2023-03-04T15:43:54.796Z,60.98
2023-03-04T15:46:21.945Z,61.05
2023-03-04T15:48:50.041Z,61.93
2023-03-04T15:51:22.317Z,61.06
2023-03-04T15:53:59.172Z,61.13
2023-03-04T15:56:33.097Z,61.05
2023-03-04T15:59:11.229Z,60.83
2023-03-04T16:01:38.421Z,61.12
2023-03-04T16:04:05.621Z,61.14
2023-03-04T16:06:33.263Z,60.98
2023-03-04T16:09:01.219Z,60.90
2023-03-04T16:11:32.513Z,60.99
2023-03-04T16:13:59.465Z,61.03
2023-03-04T16:16:26.395Z,60.88
2023-03-04T16:18:53.316Z,61.03
2023-03-04T16:21:25.061Z,60.81
2023-03-04T16:23:54.419Z,60.93
2023-03-04T16:26:24.919Z,60.79
2023-03-04T16:28:53.433Z,60.79
2023-03-04T16:31:22.154Z,60.75
2023-03-04T16:33:49.215Z,60.88
2023-03-04T16:36:22.653Z,60.61
2023-03-04T16:38:50.418Z,60.73
2023-03-04T16:41:26.363Z,60.72
2023-03-04T16:43:55.807Z,60.79
2023-03-04T16:46:22.964Z,60.92
2023-03-04T16:48:49.902Z,60.89
2023-03-04T16:51:20.574Z,60.71
2023-03-04T16:53:56.527Z,60.38
2023-03-04T16:56:24.073Z,60.84
2023-03-04T16:58:54.062Z,60.75
2023-03-04T17:01:25.948Z,60.90
2023-03-04T17:03:53.810Z,60.94
2023-03-04T17:06:21.171Z,60.72
2023-03-04T17:08:48.271Z,60.96
2023-03-04T17:11:23.117Z,60.51
2023-03-04T17:13:50.538Z,60.64
2023-03-04T17:16:18.483Z,60.81
2023-03-04T17:18:45.970Z,60.84
2023-03-04T17:21:17.209Z,60.79
2023-03-04T17:23:44.141Z,59.97
2023-03-04T17:26:11.749Z,60.64
2023-03-04T17:28:39.302Z,60.36
2023-03-04T17:31:16.338Z,60.79
2023-03-04T17:33:44.564Z,60.71
2023-03-04T17:36:13.582Z,60.60
2023-03-04T17:38:41.213Z,60.89
2023-03-04T17:41:17.340Z,60.67
2023-03-04T17:43:50.514Z,60.64
2023-03-04T17:46:22.009Z,60.55
2023-03-04T17:48:49.455Z,60.40
2023-03-04T17:51:16.397Z,60.72
2023-03-04T17:53:43.337Z,60.64
2023-03-04T17:56:12.305Z,60.95
2023-03-04T17:58:40.310Z,60.72
2023-03-04T18:01:20.169Z,60.35
2023-03-04T18:03:47.221Z,60.63
2023-03-04T18:06:14.696Z,61.00
2023-03-04T18:08:41.748Z,60.84
2023-03-04T18:11:09.330Z,60.72
2023-03-04T18:13:40.971Z,60.37
2023-03-04T18:16:09.024Z,60.99
2023-03-04T18:18:36.539Z,60.85
2023-03-04T18:21:04.941Z,61.69
2023-03-04T18:23:32.865Z,60.98
2023-03-04T18:26:01.595Z,61.23
2023-03-04T18:28:28.910Z,61.21
2023-03-04T18:30:57.000Z,61.07
2023-03-04T18:33:24.353Z,60.82
2023-03-04T18:36:03.488Z,60.92
2023-03-04T18:38:31.237Z,60.88
2023-03-04T18:41:00.502Z,60.88
2023-03-04T18:43:28.041Z,60.88
2023-03-04T18:46:26.407Z,60.55
2023-03-04T18:48:56.210Z,60.94
2023-03-04T18:51:23.160Z,61.03
2023-03-04T18:53:50.110Z,61.16
2023-03-04T18:56:37.580Z,61.20
2023-03-04T18:59:13.894Z,61.46
2023-03-04T19:01:41.370Z,60.99
2023-03-04T19:04:09.251Z,61.18
2023-03-04T19:06:36.316Z,61.24
2023-03-04T19:09:06.453Z,61.25
2023-03-04T19:11:33.757Z,61.38
2023-03-04T19:14:00.707Z,61.21
2023-03-04T19:16:27.693Z,61.30
2023-03-04T19:18:54.693Z,61.14
2023-03-04T19:21:21.634Z,61.25
2023-03-04T19:23:48.608Z,61.25
2023-03-04T19:26:15.660Z,61.25
2023-03-04T19:28:42.737Z,60.97
2023-03-04T19:31:11.118Z,61.10
2023-03-04T19:33:41.545Z,61.37
2023-03-04T19:36:10.149Z,61.17
2023-03-04T19:38:37.349Z,61.20
2023-03-04T19:41:10.701Z,61.15
2023-03-04T19:43:39.170Z,61.23
2023-03-04T19:46:08.540Z,61.21
2023-03-04T19:48:36.866Z,61.00
2023-03-04T19:51:05.147Z,61.20
2023-03-04T19:53:34.666Z,61.31
2023-03-04T19:56:01.892Z,61.53
2023-03-04T19:58:28.797Z,61.21
2023-03-04T20:00:56.220Z,61.36
2023-03-04T20:03:24.054Z,61.25
2023-03-04T20:05:51.024Z,61.10
2023-03-04T20:08:18.669Z,61.37
2023-03-04T20:10:45.674Z,61.34
2023-03-04T20:13:12.684Z,61.28
2023-03-04T20:15:43.611Z,61.14
2023-03-04T20:18:10.697Z,61.36
2023-03-04T20:20:39.046Z,61.58
2023-03-04T20:23:06.175Z,61.24
2023-03-04T20:25:33.149Z,61.26
2023-03-04T20:28:00.226Z,61.33
2023-03-04T20:30:27.339Z,61.38
2023-03-04T20:32:54.291Z,61.70
2023-03-04T20:35:21.372Z,61.45
2023-03-04T20:37:48.314Z,61.27
2023-03-04T20:40:15.345Z,61.23
2023-03-04T20:42:42.319Z,61.28
2023-03-04T20:45:09.791Z,61.31
2023-03-04T20:47:39.469Z,61.42
2023-03-04T20:50:07.431Z,61.45
2023-03-04T20:52:34.416Z,61.36
2023-03-04T20:55:01.442Z,61.25
2023-03-04T20:57:30.216Z,61.43
2023-03-04T20:59:57.205Z,61.14
2023-03-04T21:02:25.365Z,61.27
2023-03-04T21:04:52.457Z,61.20
2023-03-04T21:07:19.491Z,61.29
2023-03-04T21:09:46.446Z,61.47
2023-03-04T21:12:13.550Z,61.35
2023-03-04T21:14:40.831Z,61.07
2023-03-04T21:17:07.848Z,61.35
2023-03-04T21:19:43.106Z,61.29
2023-03-04T21:22:18.074Z,61.01
2023-03-04T21:24:46.366Z,61.44
2023-03-04T21:27:16.385Z,61.21
2023-03-04T21:29:43.693Z,61.18
2023-03-04T21:32:24.662Z,61.08
2023-03-04T21:34:52.731Z,60.82
2023-03-04T21:37:24.450Z,61.02
2023-03-04T21:39:51.696Z,61.24
2023-03-04T21:42:18.855Z,61.33
2023-03-04T21:44:49.735Z,61.54
2023-03-04T21:47:19.180Z,61.36
2023-03-04T21:49:46.368Z,61.44
2023-03-04T21:52:13.478Z,61.47
2023-03-04T21:54:40.548Z,61.41
2023-03-04T21:57:07.613Z,61.27
2023-03-04T21:59:34.570Z,61.52
2023-03-04T22:02:02.295Z,61.19
2023-03-04T22:04:29.273Z,62.69
2023-03-04T22:06:56.311Z,61.69
2023-03-04T22:09:23.330Z,61.69
2023-03-04T22:11:50.351Z,61.41
2023-03-04T22:14:17.276Z,61.52
2023-03-04T22:16:59.562Z,61.46
2023-03-04T22:19:31.596Z,61.38
2023-03-04T22:21:59.207Z,61.47
2023-03-04T22:24:26.403Z,61.53
2023-03-04T22:26:53.477Z,61.48
2023-03-04T22:29:20.432Z,61.81
2023-03-04T22:31:47.654Z,61.25
2023-03-04T22:34:16.818Z,61.03
2023-03-04T22:36:46.194Z,61.53
2023-03-04T22:39:19.052Z,61.88
2023-03-04T22:41:46.387Z,62.45
2023-03-04T22:44:13.975Z,61.76
2023-03-04T22:46:41.083Z,62.29
2023-03-04T22:49:11.454Z,62.66
2023-03-04T22:51:44.005Z,61.75
2023-03-04T22:54:17.504Z,61.39
2023-03-04T22:56:45.139Z,61.56
2023-03-04T22:59:12.162Z,61.70
2023-03-04T23:01:39.285Z,61.82
2023-03-04T23:04:06.231Z,61.73
2023-03-04T23:06:33.561Z,61.63
2023-03-04T23:09:00.803Z,61.97
2023-03-04T23:11:35.348Z,62.92
2023-03-04T23:14:06.367Z,61.90
2023-03-04T23:16:37.178Z,63.28
2023-03-04T23:19:06.453Z,61.99
2023-03-04T23:21:33.979Z,62.73
2023-03-04T23:24:06.920Z,62.46
2023-03-04T23:26:41.067Z,61.95
2023-03-04T23:29:12.426Z,62.86
2023-03-04T23:31:39.429Z,63.19
2023-03-04T23:34:06.916Z,63.39
2023-03-04T23:36:36.277Z,62.46
2023-03-04T23:39:06.419Z,62.97
2023-03-04T23:41:34.427Z,63.95
2023-03-04T23:44:02.056Z,63.60
2023-03-04T23:46:29.364Z,64.18
2023-03-04T23:48:56.802Z,65.40
2023-03-04T23:51:29.094Z,64.15
2023-03-04T23:53:56.742Z,63.77
2023-03-04T23:56:28.900Z,64.04
2023-03-04T23:58:57.388Z,64.44
